Time;durP1;ratioP1;P1;durP2;ratioP2;P2;SDS_P1;SDS_P2;PMS_P1;PMS_P2;Temp;Humidity;BMP_temperature;BMP_pressure;BME280_temperature;BME280_humidity;BME280_pressure;Samples;Min_cycle;Max_cycle;Signal;HPM_P1;HPM_P2
2023/07/03 00:00:11;;;;;;;26.42;10.07;;;;;;;-144.47;72.77;52669.41;5049100;28;20470;-69
2023/07/03 00:02:36;;;;;;;22.15;9.50;;;;;;;-144.47;73.02;52691.25;5041349;28;20037;-70
2023/07/03 00:05:03;;;;;;;26.73;8.98;;;;;;;-144.47;73.31;52657.47;5040707;28;20122;-67
2023/07/03 00:07:28;;;;;;;25.40;9.65;;;;;;;-144.47;73.94;52659.47;5048404;28;20477;-70
2023/07/03 00:09:54;;;;;;;29.45;10.27;;;;;;;-144.47;74.67;52673.38;5048323;28;20045;-71
2023/07/03 00:12:20;;;;;;;25.00;9.05;;;;;;;-144.47;75.54;52645.56;5049091;28;20025;-69
2023/07/03 00:14:45;;;;;;;22.48;9.32;;;;;;;-144.47;76.04;52665.44;5048668;28;20031;-71
2023/07/03 00:17:10;;;;;;;25.25;9.73;;;;;;;-144.47;76.58;52657.47;5048737;28;20490;-68
2023/07/03 00:19:36;;;;;;;23.67;10.50;;;;;;;-144.47;77.05;52673.38;5049149;28;20438;-71
2023/07/03 00:22:02;;;;;;;21.42;9.50;;;;;;;-144.47;77.56;52673.38;5048862;28;20106;-70
2023/07/03 00:24:29;;;;;;;22.70;8.48;;;;;;;-144.47;77.84;52667.41;5054706;22;20056;-74
2023/07/03 00:26:56;;;;;;;25.85;9.40;;;;;;;-144.47;77.88;52689.25;5032341;28;20033;-71
2023/07/03 00:29:21;;;;;;;21.40;9.50;;;;;;;-144.47;77.95;52677.34;5031897;28;20028;-71
2023/07/03 00:31:47;;;;;;;21.65;9.18;;;;;;;-144.47;77.85;52669.41;5050464;28;20509;-73
2023/07/03 00:34:12;;;;;;;16.70;9.07;;;;;;;-144.47;77.96;52685.28;5050794;28;20021;-73
2023/07/03 00:36:37;;;;;;;19.27;8.98;;;;;;;-144.47;77.50;52681.31;5036225;28;20033;-72
2023/07/03 00:39:04;;;;;;;28.25;8.75;;;;;;;-144.47;77.68;52657.47;5037519;28;20060;-73
2023/07/03 00:41:30;;;;;;;20.80;8.60;;;;;;;-144.47;77.76;52669.41;5043086;28;20025;-74
2023/07/03 00:43:55;;;;;;;24.85;8.50;;;;;;;-144.47;77.56;52645.56;5049987;28;20078;-73
2023/07/03 00:46:20;;;;;;;27.70;9.32;;;;;;;-144.47;77.54;52677.34;5036497;28;20663;-69
2023/07/03 00:48:46;;;;;;;24.13;9.20;;;;;;;-144.47;77.50;52655.50;5037457;28;20462;-72
2023/07/03 00:51:14;;;;;;;24.15;9.05;;;;;;;-144.47;77.45;52677.34;5035819;28;20033;-72
2023/07/03 00:53:39;;;;;;;22.55;9.55;;;;;;;-144.47;76.93;52661.44;5050416;28;20028;-72
2023/07/03 00:56:05;;;;;;;18.88;9.40;;;;;;;-144.47;77.13;52665.44;5049675;28;20051;-70
2023/07/03 00:58:31;;;;;;;19.27;8.50;;;;;;;-144.47;77.17;52683.31;5041460;28;20852;-70
2023/07/03 01:01:35;;;;;;;28.00;9.50;;;;;;;-144.47;76.54;52671.38;5029330;28;20032;-72
2023/07/03 01:04:07;;;;;;;22.15;8.32;;;;;;;-144.47;76.45;52677.34;4978543;28;20370;-70
2023/07/03 01:06:40;;;;;;;28.90;9.15;;;;;;;-144.47;76.68;52657.47;5035832;28;20031;-71
2023/07/03 01:09:09;;;;;;;21.35;9.70;;;;;;;-144.47;76.83;52667.41;5050066;28;20029;-72
2023/07/03 01:11:35;;;;;;;;;;;;;;;-144.47;76.98;52685.28;5040896;28;20028;-74
2023/07/03 01:14:01;;;;;;;22.42;8.82;;;;;;;-144.47;76.84;52679.31;5029572;28;20437;-73
2023/07/03 01:16:30;;;;;;;19.55;8.73;;;;;;;-144.47;76.98;52685.28;5037687;28;20025;-73
2023/07/03 01:18:58;;;;;;;21.00;9.30;;;;;;;-144.47;76.78;52685.28;5049675;28;20027;-73
2023/07/03 01:21:39;;;;;;;21.83;9.03;;;;;;;-144.47;76.80;52661.44;5037918;28;20182;-72
2023/07/03 01:24:12;;;;;;;28.80;9.50;;;;;;;-144.47;76.82;52687.28;5048947;28;20032;-70
2023/07/03 01:26:41;;;;;;;21.80;9.10;;;;;;;-144.47;76.55;52677.34;5049584;28;20367;-72
2023/07/03 01:29:07;;;;;;;24.00;9.32;;;;;;;-144.47;76.34;52677.34;5049062;28;20028;-72
2023/07/03 01:31:35;;;;;;;22.20;9.30;;;;;;;-144.47;76.39;52669.41;5029136;28;20034;-72
2023/07/03 01:34:02;;;;;;;22.38;8.88;;;;;;;-144.47;76.78;52645.56;5028163;28;20135;-72
2023/07/03 01:36:33;;;;;;;21.92;8.85;;;;;;;-144.47;77.25;52655.50;5042709;28;20060;-71
2023/07/03 01:39:01;;;;;;;31.20;9.40;;;;;;;-144.47;77.79;52669.41;5032744;28;20036;-72
2023/07/03 01:41:28;;;;;;;22.42;9.02;;;;;;;-144.47;78.17;52661.44;5029455;28;20087;-73
2023/07/03 01:43:53;;;;;;;22.05;9.85;;;;;;;-144.47;78.51;52699.19;5022534;28;20037;-70
2023/07/03 01:46:19;;;;;;;21.60;9.48;;;;;;;-144.47;78.61;52665.44;5041689;28;20021;-72
2023/07/03 01:48:45;;;;;;;19.92;8.82;;;;;;;-144.47;78.49;52641.59;5042828;28;20021;-72
2023/07/03 01:51:16;;;;;;;23.92;9.07;;;;;;;-144.47;78.67;52681.31;5029735;28;20040;-73
2023/07/03 01:53:48;;;;;;;27.95;8.95;;;;;;;-144.47;78.34;52665.44;5029130;28;20553;-73
2023/07/03 01:56:30;;;;;;;20.92;8.43;;;;;;;-144.47;78.01;52671.38;5044120;28;20039;-73
2023/07/03 01:59:08;;;;;;;20.13;9.30;;;;;;;-144.47;78.17;52661.44;5031322;28;20060;-72
2023/07/03 02:01:59;;;;;;;24.35;9.05;;;;;;;-144.47;77.93;52655.50;5036903;28;20033;-73
2023/07/03 02:04:31;;;;;;;24.00;8.88;;;;;;;-144.47;77.22;52653.50;5026421;28;20038;-73
2023/07/03 02:07:01;;;;;;;18.08;8.57;;;;;;;-144.47;76.90;52651.53;5021750;28;20021;-70
2023/07/03 02:09:27;;;;;;;23.70;9.18;;;;;;;-144.47;76.27;52653.50;5042381;28;20467;-72
2023/07/03 02:11:53;;;;;;;19.35;8.20;;;;;;;-144.47;75.74;52683.31;5029262;28;20025;-73
2023/07/03 02:14:19;;;;;;;20.02;9.35;;;;;;;-144.47;75.44;52649.53;5028892;28;20029;-71
2023/07/03 02:16:47;;;;;;;24.30;9.52;;;;;;;-144.47;75.05;52665.44;5040526;28;20033;-70
2023/07/03 02:19:14;;;;;;;23.00;9.93;;;;;;;-144.47;75.05;52681.31;5035543;28;20029;-74
2023/07/03 02:21:40;;;;;;;20.53;9.30;;;;;;;-144.47;74.81;52651.53;5031191;28;20293;-74
2023/07/03 02:24:07;;;;;;;19.15;8.45;;;;;;;-144.47;74.80;52667.41;5048340;28;20410;-73
2023/07/03 02:26:33;;;;;;;19.58;8.25;;;;;;;-144.47;74.71;52685.28;5039627;28;20112;-71
2023/07/03 02:28:59;;;;;;;20.67;8.45;;;;;;;-144.47;74.27;52677.34;5042061;28;20511;-70
2023/07/03 02:31:24;;;;;;;17.83;8.27;;;;;;;-144.47;74.39;52649.53;5029768;28;20053;-72
2023/07/03 02:33:49;;;;;;;23.17;9.25;;;;;;;-144.47;73.56;52653.50;5045757;28;20358;-71
2023/07/03 02:36:15;;;;;;;20.48;9.00;;;;;;;-144.47;73.09;52669.41;5048713;28;20071;-70
2023/07/03 02:38:40;;;;;;;22.88;8.70;;;;;;;-144.47;73.26;52669.41;5026967;28;20057;-71
2023/07/03 02:41:06;;;;;;;23.30;8.60;;;;;;;-144.47;72.92;52685.28;5039166;28;20029;-71
2023/07/03 02:43:31;;;;;;;22.65;9.68;;;;;;;-144.47;73.26;52665.44;5047996;28;20029;-71
2023/07/03 02:46:05;;;;;;;24.13;9.75;;;;;;;-144.47;73.25;52639.59;5025846;28;20410;-70
2023/07/03 02:48:31;;;;;;;21.40;9.63;;;;;;;-144.47;73.22;52693.22;5045416;28;20104;-72
2023/07/03 02:50:56;;;;;;;26.25;10.18;;;;;;;-144.47;73.40;52651.53;5048320;28;20167;-71
2023/07/03 02:53:22;;;;;;;18.65;8.65;;;;;;;-144.47;73.29;52665.44;5034860;28;20028;-72
2023/07/03 02:55:53;;;;;;;23.20;9.02;;;;;;;-144.47;73.16;52663.44;5031807;28;20604;-71
2023/07/03 02:58:19;;;;;;;18.83;8.20;;;;;;;-144.47;73.42;52661.44;5046723;28;20491;-72
2023/07/03 03:00:46;;;;;;;23.58;9.02;;;;;;;-144.47;73.22;52643.56;5042338;28;20044;-71
2023/07/03 03:03:13;;;;;;;23.67;9.93;;;;;;;-144.47;73.29;52667.41;5027513;28;20021;-71
2023/07/03 03:05:39;;;;;;;24.23;9.18;;;;;;;-144.47;73.21;52649.53;5030433;28;20124;-72
2023/07/03 03:08:04;;;;;;;18.38;7.60;;;;;;;-144.47;73.35;52671.38;5033739;28;20109;-70
2023/07/03 03:10:30;;;;;;;22.38;10.18;;;;;;;-144.47;73.15;52659.47;5048422;28;20130;-71
2023/07/03 03:12:55;;;;;;;22.77;7.80;;;;;;;-144.47;73.52;52685.28;5042857;28;20471;-72
2023/07/03 03:15:20;;;;;;;22.00;9.00;;;;;;;-144.47;73.72;52663.44;5030498;28;20088;-72
2023/07/03 03:17:46;;;;;;;30.60;9.07;;;;;;;-144.47;74.12;52689.25;5031755;28;20100;-70
2023/07/03 03:20:13;;;;;;;17.73;8.60;;;;;;;-144.47;74.49;52663.44;5031997;28;20037;-72
2023/07/03 03:22:40;;;;;;;27.13;9.25;;;;;;;-144.47;74.37;52683.31;5032160;28;20159;-68
2023/07/03 03:25:06;;;;;;;20.92;9.32;;;;;;;-144.47;74.37;52663.44;5013873;28;20355;-71
2023/07/03 03:27:31;;;;;;;23.45;9.30;;;;;;;-144.47;74.25;52683.31;5045245;28;20021;-71
2023/07/03 03:29:57;;;;;;;24.85;8.75;;;;;;;-144.47;74.49;52649.53;5031906;28;20431;-71
2023/07/03 03:32:22;;;;;;;19.73;8.52;;;;;;;-144.47;74.46;52697.19;5045099;28;20033;-72
2023/07/03 03:34:48;;;;;;;27.95;8.60;;;;;;;-144.47;73.98;52659.47;5042619;28;20021;-69
2023/07/03 03:37:13;;;;;;;20.70;9.38;;;;;;;-144.47;74.24;52659.47;5035823;28;20663;-73
2023/07/03 03:39:38;;;;;;;29.05;9.40;;;;;;;-144.47;74.13;52663.44;5031945;28;20683;-70
2023/07/03 03:42:04;;;;;;;23.75;8.90;;;;;;;-144.47;73.98;52693.22;5048903;28;20419;-69
2023/07/03 03:44:30;;;;;;;20.15;8.95;;;;;;;-144.47;73.92;52653.50;5022819;28;20029;-71
2023/07/03 03:46:55;;;;;;;22.33;9.13;;;;;;;-144.47;73.83;52687.28;5049501;28;20028;-73
2023/07/03 03:49:21;;;;;;;20.38;8.82;;;;;;;-144.47;73.32;52675.34;5052703;28;20344;-74
2023/07/03 03:51:47;;;;;;;21.50;9.05;;;;;;;-144.47;72.85;52667.41;5051162;28;20143;-72
2023/07/03 03:54:12;;;;;;;22.20;8.13;;;;;;;-144.47;72.70;52667.41;5040589;28;20104;-72
2023/07/03 03:56:38;;;;;;;21.88;9.38;;;;;;;-144.47;72.19;52645.56;5036412;28;20025;-71
2023/07/03 03:59:03;;;;;;;18.95;9.02;;;;;;;-144.47;71.99;52677.34;5038439;28;20508;-70
2023/07/03 04:01:29;;;;;;;26.38;10.35;;;;;;;-144.47;71.48;52675.34;5027753;28;20025;-71
2023/07/03 04:03:54;;;;;;;23.63;9.52;;;;;;;-144.47;71.61;52659.47;5030369;28;20096;-71
2023/07/03 04:06:20;;;;;;;28.27;8.98;;;;;;;-144.47;70.78;52657.47;5034172;28;20060;-73
2023/07/03 04:08:46;;;;;;;22.98;9.57;;;;;;;-144.47;70.97;52653.50;5023236;28;20364;-73
2023/07/03 04:11:11;;;;;;;23.38;8.57;;;;;;;-144.47;70.42;52661.44;5048866;28;20056;-73
2023/07/03 04:13:37;;;;;;;32.33;11.02;;;;;;;-144.47;70.35;52649.53;5030912;28;20025;-70
2023/07/03 04:16:03;;;;;;;24.10;8.20;;;;;;;-144.47;69.74;52657.47;5035957;28;20047;-74
2023/07/03 04:18:30;;;;;;;22.33;9.50;;;;;;;-144.47;69.62;52659.47;5040111;28;20423;-73
2023/07/03 04:20:57;;;;;;;22.30;9.23;;;;;;;-144.47;69.48;52643.56;5044402;28;20032;-72
2023/07/03 04:23:24;;;;;;;20.20;8.45;;;;;;;-144.47;69.30;52645.56;5030618;28;20078;-72
2023/07/03 04:25:50;;;;;;;29.25;9.07;;;;;;;-144.47;69.25;52653.50;5035174;28;20033;-72
2023/07/03 04:28:17;;;;;;;22.80;9.05;;;;;;;-144.47;69.31;52681.31;5048545;28;20104;-71
2023/07/03 04:30:43;;;;;;;23.10;8.90;;;;;;;-144.47;68.92;52671.38;5021391;28;20315;-72
2023/07/03 04:33:08;;;;;;;23.83;8.63;;;;;;;-144.47;68.82;52667.41;5050984;28;20108;-71
2023/07/03 04:35:35;;;;;;;22.17;8.27;;;;;;;-144.47;68.40;52671.38;5037189;28;20028;-69
2023/07/03 04:38:01;;;;;;;23.10;9.00;;;;;;;-144.47;68.45;52653.50;5037630;28;20088;-72
2023/07/03 04:40:27;;;;;;;25.35;9.02;;;;;;;-144.47;68.39;52669.41;5034513;28;20475;-72
2023/07/03 04:42:53;;;;;;;21.85;8.82;;;;;;;-144.47;68.08;52673.38;5041948;28;20036;-72
2023/07/03 04:45:21;;;;;;;23.73;8.77;;;;;;;-144.47;67.75;52659.47;5034620;28;20024;-70
2023/07/03 04:47:47;;;;;;;30.20;8.93;;;;;;;-144.47;67.83;52649.53;5042635;28;20140;-73
2023/07/03 04:50:15;;;;;;;23.92;9.45;;;;;;;-144.47;67.25;52685.28;5031415;28;20098;-74
2023/07/03 04:52:41;;;;;;;27.67;8.30;;;;;;;-144.47;66.87;52661.44;5021200;28;20091;-72
2023/07/03 04:55:08;;;;;;;24.25;8.45;;;;;;;-144.47;66.43;52647.56;5033643;28;20469;-72
2023/07/03 04:57:38;;;;;;;22.23;8.02;;;;;;;-144.47;65.26;52653.50;5030612;28;20572;-73
2023/07/03 05:00:14;;;;;;;19.42;8.68;;;;;;;-144.47;64.37;52633.66;5033327;28;20254;-73
2023/07/03 05:02:44;;;;;;;22.13;7.80;;;;;;;-144.47;63.63;52649.53;5025695;28;20494;-74
2023/07/03 05:05:10;;;;;;;19.08;7.88;;;;;;;-144.47;63.30;52659.47;5025805;28;20045;-72
2023/07/03 05:07:37;;;;;;;21.75;8.45;;;;;;;-144.47;63.25;52645.56;5029396;28;20024;-73
2023/07/03 05:10:03;;;;;;;22.50;7.72;;;;;;;-144.47;62.88;52645.56;5042918;28;20053;-72
2023/07/03 05:12:28;;;;;;;24.88;9.38;;;;;;;-144.47;62.92;52643.56;5030241;28;20067;-72
2023/07/03 05:14:54;;;;;;;27.25;9.30;;;;;;;-144.47;62.88;52623.72;5031746;28;20028;-72
2023/07/03 05:17:20;;;;;;;25.83;8.65;;;;;;;-144.47;63.45;52645.56;5043638;28;20028;-71
2023/07/03 05:19:45;;;;;;;23.20;8.13;;;;;;;-144.47;62.82;52639.59;5034186;28;20040;-74
2023/07/03 05:22:11;;;;;;;19.10;8.48;;;;;;;-144.47;63.02;52665.44;5039350;28;20056;-73
2023/07/03 05:24:36;;;;;;;23.30;8.63;;;;;;;-144.47;61.91;52655.50;5047301;28;20106;-70
2023/07/03 05:27:01;;;;;;;18.30;8.27;;;;;;;-144.47;62.14;52637.63;5048691;28;20029;-72
2023/07/03 05:29:27;;;;;;;20.77;8.35;;;;;;;-144.47;61.33;52667.41;5018111;28;20047;-71
2023/07/03 05:31:52;;;;;;;23.73;8.05;;;;;;;-144.47;60.04;52663.44;5021771;28;20036;-72
2023/07/03 05:34:18;;;;;;;24.98;8.02;;;;;;;-144.47;58.98;52661.44;5027211;28;20084;-72
2023/07/03 05:36:43;;;;;;;19.70;7.55;;;;;;;-144.47;58.13;52661.44;5024577;28;20112;-70
2023/07/03 05:39:08;;;;;;;23.42;7.60;;;;;;;-144.47;57.83;52657.47;5030059;28;20122;-73
2023/07/03 05:41:34;;;;;;;21.13;5.45;;;;;;;-144.47;57.93;52635.63;5042218;28;20040;-73
2023/07/03 05:43:59;;;;;;;21.88;7.07;;;;;;;-144.47;57.61;52681.31;5031553;28;20033;-70
2023/07/03 05:46:24;;;;;;;21.48;6.32;;;;;;;-144.47;57.41;52667.41;5035308;28;20021;-72
2023/07/03 05:48:50;;;;;;;17.08;5.68;;;;;;;-144.47;57.37;52663.44;5016287;28;20163;-73
2023/07/03 05:51:15;;;;;;;25.65;7.03;;;;;;;-144.47;56.69;52689.25;5047925;28;20021;-71
2023/07/03 05:53:41;;;;;;;16.48;5.95;;;;;;;-144.47;55.67;52653.50;5036515;28;20491;-73
2023/07/03 05:56:06;;;;;;;19.42;6.75;;;;;;;-144.47;55.56;52685.28;5034526;28;20037;-73
2023/07/03 05:58:32;;;;;;;21.98;5.85;;;;;;;-144.47;54.65;52651.53;5030162;28;20626;-74
2023/07/03 06:00:58;;;;;;;19.13;5.20;;;;;;;-144.47;53.26;52645.56;5040529;28;20014;-71
2023/07/03 06:03:25;;;;;;;18.10;5.80;;;;;;;-144.47;53.50;52677.34;5025105;28;20021;-73
2023/07/03 06:05:51;;;;;;;15.00;5.00;;;;;;;-144.47;53.31;52635.63;5041483;28;20029;-70
2023/07/03 06:08:16;;;;;;;16.58;4.72;;;;;;;-144.47;53.08;52647.56;5049662;28;20083;-73
2023/07/03 06:10:41;;;;;;;15.68;5.28;;;;;;;-144.47;52.22;52639.59;5030720;28;20018;-72
2023/07/03 06:13:07;;;;;;;15.40;4.20;;;;;;;-144.47;49.66;52649.53;5040390;28;20036;-72
2023/07/03 06:15:34;;;;;;;18.98;5.35;;;;;;;-144.47;49.50;52653.50;5031059;28;20040;-74
2023/07/03 06:18:02;;;;;;;16.35;4.53;;;;;;;-144.47;49.63;52651.53;5029784;28;20017;-70
2023/07/03 06:20:27;;;;;;;15.68;5.28;;;;;;;-144.47;48.24;52657.47;5029458;28;20021;-72
2023/07/03 06:22:53;;;;;;;18.23;4.43;;;;;;;-144.47;47.74;52641.59;5029406;28;20045;-70
2023/07/03 06:25:18;;;;;;;20.70;4.97;;;;;;;-144.47;47.39;52651.53;5053069;22;20042;-71
2023/07/03 06:27:44;;;;;;;15.48;4.15;;;;;;;-144.47;47.16;52645.56;5028730;28;20061;-68
2023/07/03 06:30:10;;;;;;;18.65;4.43;;;;;;;-144.47;46.97;52667.41;5032454;28;20033;-69
2023/07/03 06:32:36;;;;;;;13.15;4.22;;;;;;;-144.47;47.42;52681.31;5009788;28;20462;-68
2023/07/03 06:35:02;;;;;;;14.90;4.88;;;;;;;-144.47;48.11;52647.56;5004039;28;20080;-70
2023/07/03 06:37:27;;;;;;;13.73;5.35;;;;;;;-144.47;47.07;52653.50;5016469;28;20021;-68
2023/07/03 06:39:53;;;;;;;16.48;3.60;;;;;;;-144.47;48.34;52641.59;5028050;28;20260;-69
2023/07/03 06:42:18;;;;;;;17.00;5.05;;;;;;;-144.47;48.33;52645.56;5014492;28;20025;-66
2023/07/03 06:44:44;;;;;;;22.80;4.28;;;;;;;-144.47;47.74;52655.50;5016719;28;20388;-65
2023/07/03 06:47:10;;;;;;;16.75;4.63;;;;;;;-144.47;47.99;52645.56;4994461;28;20075;-68
2023/07/03 06:49:36;;;;;;;14.07;4.25;;;;;;;-144.47;47.58;52643.56;5022185;28;20030;-68
2023/07/03 06:52:02;;;;;;;19.50;4.65;;;;;;;-144.47;47.07;52641.59;5007368;28;20030;-68
2023/07/03 06:54:27;;;;;;;11.02;3.15;;;;;;;-144.47;46.47;52677.34;5025337;28;21374;-69
2023/07/03 06:56:53;;;;;;;20.40;4.38;;;;;;;-144.47;46.70;52655.50;5024231;28;20130;-68
2023/07/03 06:59:18;;;;;;;16.98;3.50;;;;;;;-144.47;46.65;52643.56;5025570;28;20030;-68
2023/07/03 07:01:43;;;;;;;17.83;3.33;;;;;;;-144.47;46.55;52649.53;5024853;28;20029;-70
2023/07/03 07:04:10;;;;;;;19.98;3.50;;;;;;;-144.47;46.76;52627.69;5024661;28;20052;-70
2023/07/03 07:06:38;;;;;;;20.73;4.07;;;;;;;-144.47;46.63;52655.50;5024992;28;20071;-69
2023/07/03 07:09:03;;;;;;;14.47;3.50;;;;;;;-144.47;46.72;52653.50;5027715;28;20495;-69
2023/07/03 07:11:32;;;;;;;12.98;3.00;;;;;;;-144.47;46.62;52639.59;5023812;28;20091;-68
2023/07/03 07:14:00;;;;;;;14.68;3.63;;;;;;;-144.47;46.87;52651.53;5025264;28;20112;-68
2023/07/03 07:16:28;;;;;;;20.17;4.03;;;;;;;-144.47;46.30;52663.44;5023422;28;20114;-69
2023/07/03 07:18:56;;;;;;;18.60;3.47;;;;;;;-144.47;46.60;52647.56;5024239;28;20389;-69
2023/07/03 07:21:22;;;;;;;21.27;3.28;;;;;;;-144.47;46.27;52643.56;5025451;28;20025;-68
2023/07/03 07:23:50;;;;;;;17.70;3.25;;;;;;;-144.47;46.60;52661.44;5023649;28;20025;-70
2023/07/03 07:26:15;;;;;;;12.30;4.22;;;;;;;-144.47;47.09;52645.56;5023019;28;20053;-69
2023/07/03 07:28:41;;;;;;;17.55;3.25;;;;;;;-144.47;47.27;52647.56;5025599;28;20061;-70
2023/07/03 07:31:06;;;;;;;18.60;3.90;;;;;;;-144.47;46.71;52637.63;5022308;28;20037;-71
2023/07/03 07:33:32;;;;;;;18.80;3.95;;;;;;;-144.47;46.27;52635.63;5008107;28;20043;-66
2023/07/03 07:35:57;;;;;;;20.58;3.20;;;;;;;-144.47;44.16;52635.63;5023678;28;20067;-70
2023/07/03 07:38:22;;;;;;;24.80;3.50;;;;;;;-144.47;43.03;52655.50;5027089;28;20441;-68
2023/07/03 07:40:49;;;;;;;15.00;2.95;;;;;;;-144.47;42.32;52641.59;5033559;28;20116;-70
2023/07/03 07:43:14;;;;;;;14.68;2.80;;;;;;;-144.47;41.92;52633.66;5033864;28;20029;-67
2023/07/03 07:45:40;;;;;;;13.90;2.75;;;;;;;-144.47;41.46;52661.44;5025911;28;20270;-70
2023/07/03 07:48:05;;;;;;;14.43;3.35;;;;;;;-144.47;41.74;52641.59;5021823;28;20040;-71
2023/07/03 07:50:36;;;;;;;12.10;2.97;;;;;;;-144.47;41.98;52621.72;5025309;28;20507;-70
2023/07/03 07:53:02;;;;;;;12.77;3.70;;;;;;;-144.47;42.50;52647.56;5015056;28;20038;-68
2023/07/03 07:55:28;;;;;;;11.93;2.95;;;;;;;-144.47;42.46;52655.50;5012035;28;20037;-70
2023/07/03 07:57:53;;;;;;;11.18;3.38;;;;;;;-144.47;43.19;52657.47;5016515;28;20040;-68
2023/07/03 08:00:20;;;;;;;19.20;3.95;;;;;;;-144.47;43.18;52653.50;5020380;28;20530;-69
2023/07/03 08:02:46;;;;;;;11.45;3.47;;;;;;;-144.47;43.38;52635.63;5019699;28;20105;-67
2023/07/03 08:05:11;;;;;;;11.70;2.85;;;;;;;-144.47;41.58;52645.56;5014729;28;20114;-69
2023/07/03 08:07:37;;;;;;;13.77;3.22;;;;;;;-144.47;42.27;52651.53;5011569;28;20104;-65
2023/07/03 08:10:02;;;;;;;14.27;3.83;;;;;;;-144.47;43.15;52649.53;5011627;28;20026;-70
2023/07/03 08:12:28;;;;;;;12.15;3.30;;;;;;;-144.47;42.25;52619.75;5011504;28;20503;-70
2023/07/03 08:14:53;;;;;;;17.00;3.53;;;;;;;-144.47;42.62;52653.50;5012348;28;20053;-70
2023/07/03 08:17:18;;;;;;;19.45;3.25;;;;;;;-144.47;42.11;52643.56;5021679;28;20076;-71
2023/07/03 08:19:44;;;;;;;12.98;3.10;;;;;;;-144.47;42.27;52641.59;5011291;28;20653;-67
2023/07/03 08:22:09;;;;;;;23.60;4.00;;;;;;;-144.47;42.73;52633.66;5011098;28;20438;-69
2023/07/03 08:24:34;;;;;;;14.18;3.55;;;;;;;-144.47;42.52;52665.44;5010656;28;20507;-67
2023/07/03 08:27:00;;;;;;;10.85;3.38;;;;;;;-144.47;42.17;52649.53;5011351;28;20492;-69
2023/07/03 08:29:25;;;;;;;12.80;3.40;;;;;;;-144.47;41.90;52657.47;5011180;28;20411;-69
2023/07/03 08:31:50;;;;;;;10.68;2.75;;;;;;;-144.47;40.89;52673.38;4996658;28;20578;-69
2023/07/03 08:34:16;;;;;;;23.27;3.30;;;;;;;-144.47;41.70;52661.44;5021222;28;20036;-67
2023/07/03 08:36:41;;;;;;;9.13;2.92;;;;;;;-144.47;41.50;52649.53;5011472;28;20480;-70
2023/07/03 08:39:08;;;;;;;12.05;3.05;;;;;;;-144.47;40.87;52645.56;5019744;28;20650;-67
2023/07/03 08:42:08;;;;;;;16.63;3.58;;;;;;;-144.47;40.89;52645.56;5013687;28;20064;-69
2023/07/03 08:44:33;;;;;;;14.82;2.88;;;;;;;-144.47;40.81;52635.63;5012334;28;20435;-70
2023/07/03 08:47:03;;;;;;;17.55;3.60;;;;;;;-144.47;40.87;52643.56;5030142;28;20032;-66
2023/07/03 08:49:29;;;;;;;12.48;3.40;;;;;;;-144.47;40.85;52645.56;5017317;28;20030;-68
2023/07/03 08:51:59;;;;;;;18.25;4.15;;;;;;;-144.47;40.14;52653.50;5022948;28;20104;-67
2023/07/03 08:54:28;;;;;;;10.95;2.80;;;;;;;-144.47;40.11;52649.53;5023152;28;20410;-70
2023/07/03 08:56:56;;;;;;;12.85;3.05;;;;;;;-144.47;39.66;52655.50;4997997;28;20036;-69
2023/07/03 08:59:22;;;;;;;15.13;3.25;;;;;;;-144.47;39.61;52657.47;5013274;28;20041;-68
2023/07/03 09:01:55;;;;;;;12.70;3.05;;;;;;;-144.47;38.91;52633.66;5028847;28;20030;-69
2023/07/03 09:04:39;;;;;;;15.63;3.05;;;;;;;-144.47;39.53;52653.50;5003164;28;20029;-70
2023/07/03 09:07:14;;;;;;;11.70;3.17;;;;;;;-144.47;38.83;52649.53;5023000;28;20025;-68
2023/07/03 09:10:13;;;;;;;15.52;3.17;;;;;;;-144.47;38.68;52641.59;5023332;28;20026;-69
2023/07/03 09:13:02;;;;;;;12.73;3.28;;;;;;;-144.47;38.37;52653.50;5022605;28;20064;-70
2023/07/03 09:15:33;;;;;;;11.05;2.90;;;;;;;-144.47;38.15;52645.56;5010281;28;20025;-70
2023/07/03 09:18:02;;;;;;;12.68;2.40;;;;;;;-144.47;37.70;52665.44;5029851;28;20021;-68
2023/07/03 09:20:29;;;;;;;12.05;2.63;;;;;;;-144.47;36.44;52633.66;5027165;28;20715;-69
2023/07/03 09:23:03;;;;;;;11.02;2.80;;;;;;;-144.47;36.55;52663.44;5019164;28;20025;-69
2023/07/03 09:25:40;;;;;;;12.65;2.45;;;;;;;-144.47;36.10;52657.47;5025092;28;20026;-70
2023/07/03 09:28:09;;;;;;;10.80;2.75;;;;;;;-144.47;36.02;52649.53;5021737;28;20025;-68
2023/07/03 09:30:35;;;;;;;8.68;2.20;;;;;;;-144.47;36.33;52649.53;5016326;28;20219;-68
2023/07/03 09:33:00;;;;;;;12.05;2.42;;;;;;;-144.47;36.39;52607.84;5029425;28;20038;-69
2023/07/03 09:35:35;;;;;;;9.95;3.28;;;;;;;-144.47;35.86;52631.66;5014910;28;20035;-70
2023/07/03 09:38:01;;;;;;;8.65;2.20;;;;;;;-144.47;35.93;52661.44;5016523;28;20097;-65
2023/07/03 09:40:31;;;;;;;14.50;2.25;;;;;;;-144.47;35.93;52651.53;5016531;28;20017;-71
2023/07/03 09:42:57;;;;;;;11.48;2.22;;;;;;;-144.47;35.76;52629.69;5026149;28;20041;-71
2023/07/03 09:45:28;;;;;;;10.23;2.30;;;;;;;-144.47;35.36;52651.53;5017164;28;20030;-68
2023/07/03 09:47:57;;;;;;;9.43;2.88;;;;;;;-144.47;35.05;52669.41;5006192;28;20056;-68
2023/07/03 09:50:35;;;;;;;8.77;2.67;;;;;;;-144.47;34.89;52649.53;5020436;28;20041;-68
2023/07/03 09:53:02;;;;;;;9.50;2.28;;;;;;;-144.47;35.28;52621.72;5026419;28;20033;-69
2023/07/03 09:55:29;;;;;;;13.73;2.67;;;;;;;-144.47;34.35;52631.66;5000348;28;20480;-70
2023/07/03 09:57:54;;;;;;;8.45;2.00;;;;;;;-144.47;34.36;52653.50;5022150;28;20053;-68
2023/07/03 10:00:22;;;;;;;6.93;2.08;;;;;;;-144.47;34.96;52647.56;5008975;28;20049;-69
2023/07/03 10:02:57;;;;;;;14.20;2.70;;;;;;;-144.47;34.31;52643.56;5025155;28;20560;-70
2023/07/03 10:05:30;;;;;;;14.70;2.65;;;;;;;-144.47;34.17;52659.47;5016223;28;20274;-67
2023/07/03 10:08:00;;;;;;;10.73;2.67;;;;;;;-144.47;34.58;52649.53;5022760;28;20033;-68
2023/07/03 10:10:28;;;;;;;10.32;2.90;;;;;;;-144.47;34.64;52637.63;5022831;28;20025;-71
2023/07/03 10:13:05;;;;;;;8.05;1.85;;;;;;;-144.47;34.67;52645.56;5015878;28;20036;-70
2023/07/03 10:15:36;;;;;;;19.90;3.08;;;;;;;-144.47;34.22;52661.44;5026101;28;20479;-69
2023/07/03 10:18:11;;;;;;;7.80;2.60;;;;;;;-144.47;34.73;52641.59;5023403;28;20479;-69
2023/07/03 10:20:44;;;;;;;9.77;2.13;;;;;;;-144.47;34.26;52647.56;5015754;28;20121;-68
2023/07/03 10:23:16;;;;;;;9.50;2.08;;;;;;;-144.47;33.89;52641.59;5011243;28;20084;-67
2023/07/03 10:25:49;;;;;;;11.05;2.75;;;;;;;-144.47;33.65;52665.44;5014112;28;20415;-66
2023/07/03 10:28:21;;;;;;;9.23;2.42;;;;;;;-144.47;33.65;52667.41;5032306;28;20426;-68
2023/07/03 10:30:49;;;;;;;7.97;2.17;;;;;;;-144.47;33.24;52639.59;5021504;28;20124;-69
2023/07/03 10:33:18;;;;;;;8.43;2.28;;;;;;;-144.47;32.58;52659.47;5031207;28;20609;-68
2023/07/03 10:35:49;;;;;;;10.02;2.42;;;;;;;-144.47;32.63;52657.47;5021807;28;20033;-69
2023/07/03 10:38:34;;;;;;;16.20;2.25;;;;;;;-144.47;32.70;52657.47;5017146;28;20084;-68
2023/07/03 10:41:08;;;;;;;8.18;2.50;;;;;;;-144.47;32.96;52647.56;5026608;28;20029;-72
2023/07/03 10:43:46;;;;;;;16.10;2.17;;;;;;;-144.47;32.95;52645.56;5030890;28;20045;-72
2023/07/03 10:46:37;;;;;;;8.73;2.90;;;;;;;-144.47;33.40;52645.56;5019399;28;20033;-68
2023/07/03 10:49:07;;;;;;;12.20;2.75;;;;;;;-144.47;33.26;52633.66;5022039;28;20033;-70
2023/07/03 10:51:50;;;;;;;10.40;2.67;;;;;;;-144.47;32.32;52655.50;5026949;28;20026;-66
2023/07/03 10:54:32;;;;;;;12.88;2.63;;;;;;;-144.47;32.66;52671.38;5025011;28;20024;-69
2023/07/03 10:57:01;;;;;;;15.85;2.60;;;;;;;-144.47;32.50;52635.63;5021578;28;20418;-68
2023/07/03 10:59:38;;;;;;;10.00;2.42;;;;;;;-144.47;32.75;52689.25;5032458;28;20029;-66
2023/07/03 11:02:35;;;;;;;7.95;2.50;;;;;;;-144.47;32.69;52661.44;5006656;28;20108;-70
2023/07/03 11:05:21;;;;;;;10.80;2.67;;;;;;;-144.47;32.92;52675.34;5015774;28;20022;-70
2023/07/03 11:08:00;;;;;;;10.68;2.47;;;;;;;-144.47;32.75;52653.50;5030827;28;20071;-70
2023/07/03 11:10:48;;;;;;;8.55;2.10;;;;;;;-144.47;32.68;52639.59;5032993;28;20033;-69
2023/07/03 11:13:26;;;;;;;14.02;2.20;;;;;;;-144.47;32.65;52639.59;5022282;28;20037;-70